Time;durP1;ratioP1;P1;durP2;ratioP2;P2;SDS_P1;SDS_P2;PMS_P1;PMS_P2;Temp;Humidity;BMP_temperature;BMP_pressure;BME280_temperature;BME280_humidity;BME280_pressure;Samples;Min_cycle;Max_cycle;Signal;HPM_P1;HPM_P2
2021/03/01 00:00:47;;;;;;;16.08;10.95;;;;;;;;;;5010195;28;20606;-76
2021/03/01 00:03:14;;;;;;;16.70;10.00;;;;;;;;;;5010208;28;20222;-76
2021/03/01 00:05:41;;;;;;;13.43;9.75;;;;;;;;;;5018907;28;20192;-75
2021/03/01 00:08:09;;;;;;;17.17;9.98;;;;;;;;;;5032078;28;20223;-76
2021/03/01 00:10:36;;;;;;;14.98;9.27;;;;;;;;;;5032075;28;20203;-75
2021/03/01 00:13:03;;;;;;;17.48;11.07;;;;;;;;;;5031623;28;20219;-76
2021/03/01 00:15:30;;;;;;;14.85;9.27;;;;;;;;;;5024024;28;20303;-75
2021/03/01 00:17:57;;;;;;;16.10;10.43;;;;;;;;;;5017386;28;20227;-76
2021/03/01 00:20:24;;;;;;;14.82;9.35;;;;;;;;;;5009613;28;20618;-76
2021/03/01 00:22:50;;;;;;;21.33;11.13;;;;;;;;;;5009547;28;20204;-74
2021/03/01 00:25:18;;;;;;;16.60;11.13;;;;;;;;;;5009668;28;20292;-75
2021/03/01 00:27:45;;;;;;;17.27;9.70;;;;;;;;;;5018523;28;20219;-76
2021/03/01 00:30:12;;;;;;;17.70;10.13;;;;;;;;;;5035131;28;20286;-76
2021/03/01 00:32:39;;;;;;;14.25;10.05;;;;;;;;;;5035224;28;20207;-76
2021/03/01 00:35:07;;;;;;;18.55;9.77;;;;;;;;;;5035265;28;20229;-74
2021/03/01 00:37:34;;;;;;;15.52;9.70;;;;;;;;;;5020673;28;20718;-76
2021/03/01 00:40:01;;;;;;;17.50;10.73;;;;;;;;;;5020871;28;20208;-75
2021/03/01 00:42:28;;;;;;;19.50;10.73;;;;;;;;;;5012866;28;20208;-75
2021/03/01 00:44:55;;;;;;;18.70;10.05;;;;;;;;;;5012711;28;20223;-75
2021/03/01 00:47:22;;;;;;;18.38;10.25;;;;;;;;;;5013054;28;20322;-75
2021/03/01 00:49:49;;;;;;;15.27;9.23;;;;;;;;;;5020044;28;20296;-77
2021/03/01 00:52:15;;;;;;;15.80;10.57;;;;;;;;;;5035002;28;20202;-76
2021/03/01 00:54:42;;;;;;;20.17;10.60;;;;;;;;;;5034755;28;20226;-74
2021/03/01 00:57:09;;;;;;;16.92;10.60;;;;;;;;;;5034782;28;20660;-76
2021/03/01 00:59:37;;;;;;;15.55;9.65;;;;;;;;;;5027851;28;20206;-76
2021/03/01 01:02:04;;;;;;;20.55;10.90;;;;;;;;;;5020551;28;20207;-75
2021/03/01 01:04:30;;;;;;;13.73;9.45;;;;;;;;;;5031551;28;20782;-76
2021/03/01 01:06:57;;;;;;;17.13;10.20;;;;;;;;;;5032252;28;20728;-75
2021/03/01 01:09:24;;;;;;;15.00;10.30;;;;;;;;;;5032180;28;20235;-76
2021/03/01 01:11:51;;;;;;;15.40;9.40;;;;;;;;;;5032793;28;20199;-75
2021/03/01 01:14:18;;;;;;;15.63;9.70;;;;;;;;;;5020882;28;20696;-76
2021/03/01 01:16:45;;;;;;;11.20;8.20;;;;;;;;;;5025268;28;20204;-75
2021/03/01 01:19:12;;;;;;;15.00;9.13;;;;;;;;;;5032346;28;20203;-74
2021/03/01 01:21:39;;;;;;;15.07;9.48;;;;;;;;;;5032041;28;20203;-75
2021/03/01 01:24:06;;;;;;;12.35;7.78;;;;;;;;;;5032344;28;20592;-75
2021/03/01 01:26:32;;;;;;;16.05;9.10;;;;;;;;;;5033651;28;20226;-75
2021/03/01 01:28:59;;;;;;;12.98;8.43;;;;;;;;;;5034551;28;20228;-75
2021/03/01 01:31:26;;;;;;;14.52;8.80;;;;;;;;;;5034330;28;20294;-75
2021/03/01 01:33:53;;;;;;;13.27;8.52;;;;;;;;;;5034054;28;20230;-75
2021/03/01 01:36:20;;;;;;;14.68;8.40;;;;;;;;;;5021013;28;20289;-74
2021/03/01 01:38:47;;;;;;;13.25;8.40;;;;;;;;;;5015446;28;20199;-75
2021/03/01 01:41:14;;;;;;;11.23;8.02;;;;;;;;;;5012162;28;20200;-75
2021/03/01 01:43:40;;;;;;;19.42;8.45;;;;;;;;;;5011896;28;20219;-75
2021/03/01 01:46:07;;;;;;;14.73;8.80;;;;;;;;;;5012245;28;20237;-75
2021/03/01 01:48:34;;;;;;;14.52;9.10;;;;;;;;;;5027138;28;20229;-75
2021/03/01 01:51:02;;;;;;;16.30;8.30;;;;;;;;;;5033846;28;20202;-75
2021/03/01 01:53:29;;;;;;;11.95;7.57;;;;;;;;;;5016203;28;20226;-75
2021/03/01 01:55:56;;;;;;;12.32;8.45;;;;;;;;;;5033628;28;20261;-75
2021/03/01 01:58:23;;;;;;;11.68;8.63;;;;;;;;;;5021807;28;20201;-75
2021/03/01 02:00:50;;;;;;;16.33;8.63;;;;;;;;;;5016636;28;20196;-74
2021/03/01 02:03:27;;;;;;;11.98;7.88;;;;;;;;;;5011738;28;20224;-75
2021/03/01 02:05:56;;;;;;;13.55;7.93;;;;;;;;;;5011570;28;20206;-73
2021/03/01 02:08:28;;;;;;;15.07;7.85;;;;;;;;;;4994217;28;20244;-74
2021/03/01 02:10:56;;;;;;;15.73;9.02;;;;;;;;;;5021990;28;20291;-75
2021/03/01 02:13:28;;;;;;;13.05;8.38;;;;;;;;;;5032173;28;20225;-75
2021/03/01 02:15:56;;;;;;;11.40;7.47;;;;;;;;;;5033317;28;20205;-75
2021/03/01 02:18:23;;;;;;;11.82;7.88;;;;;;;;;;5033233;28;20211;-75
2021/03/01 02:20:51;;;;;;;9.70;6.72;;;;;;;;;;5003843;28;20257;-75
2021/03/01 02:23:19;;;;;;;15.10;8.20;;;;;;;;;;5023955;28;20751;-75
2021/03/01 02:25:48;;;;;;;14.35;9.32;;;;;;;;;;5031206;28;20547;-75
2021/03/01 02:28:16;;;;;;;15.80;8.63;;;;;;;;;;5030919;28;20217;-77
2021/03/01 02:30:43;;;;;;;15.02;8.15;;;;;;;;;;5013886;28;20203;-75
2021/03/01 02:33:12;;;;;;;18.05;8.45;;;;;;;;;;5014936;28;20230;-77
2021/03/01 02:35:41;;;;;;;12.38;7.78;;;;;;;;;;5015573;28;20214;-75
2021/03/01 02:38:09;;;;;;;13.45;7.53;;;;;;;;;;5015626;28;20200;-75
2021/03/01 02:40:37;;;;;;;15.05;9.05;;;;;;;;;;5015181;28;20202;-74
2021/03/01 02:43:04;;;;;;;13.02;9.00;;;;;;;;;;5018587;28;20230;-76
2021/03/01 02:45:31;;;;;;;18.02;10.05;;;;;;;;;;5006981;28;20196;-75
2021/03/01 02:47:59;;;;;;;15.95;9.10;;;;;;;;;;5030329;28;20638;-75
2021/03/01 02:50:27;;;;;;;13.93;9.25;;;;;;;;;;5030377;28;20196;-76
2021/03/01 02:52:54;;;;;;;15.23;9.30;;;;;;;;;;5030567;28;20260;-76
2021/03/01 02:55:21;;;;;;;16.23;9.93;;;;;;;;;;5032115;28;20208;-75
2021/03/01 02:57:49;;;;;;;18.05;10.45;;;;;;;;;;5032616;28;20200;-75
2021/03/01 03:00:17;;;;;;;15.82;10.52;;;;;;;;;;5032503;28;20205;-75
2021/03/01 03:02:44;;;;;;;14.07;9.70;;;;;;;;;;5032665;28;20203;-75
2021/03/01 03:05:13;;;;;;;15.57;9.82;;;;;;;;;;5018461;28;20681;-74
2021/03/01 03:07:41;;;;;;;15.52;8.82;;;;;;;;;;5023842;28;20622;-74
2021/03/01 03:10:09;;;;;;;14.48;9.50;;;;;;;;;;5030077;28;20703;-76
2021/03/01 03:12:39;;;;;;;14.75;9.77;;;;;;;;;;5030163;28;20214;-74
2021/03/01 03:15:07;;;;;;;12.23;8.90;;;;;;;;;;5030205;28;20220;-74
2021/03/01 03:17:34;;;;;;;15.80;9.02;;;;;;;;;;5031863;28;20204;-76
2021/03/01 03:20:01;;;;;;;16.15;9.20;;;;;;;;;;5032419;28;20310;-75
2021/03/01 03:22:28;;;;;;;15.82;9.63;;;;;;;;;;5014799;28;20560;-75
2021/03/01 03:24:55;;;;;;;20.38;10.18;;;;;;;;;;5031925;28;20234;-76
2021/03/01 03:27:22;;;;;;;17.60;10.60;;;;;;;;;;5018037;28;20226;-74
2021/03/01 03:29:49;;;;;;;14.85;8.57;;;;;;;;;;5014166;28;20196;-76
2021/03/01 03:32:16;;;;;;;13.95;8.15;;;;;;;;;;5010482;28;20721;-74
2021/03/01 03:34:43;;;;;;;12.10;8.90;;;;;;;;;;5010108;28;20224;-76
2021/03/01 03:37:13;;;;;;;13.13;8.65;;;;;;;;;;5010511;28;20204;-76
2021/03/01 03:39:43;;;;;;;12.60;9.40;;;;;;;;;;5028162;28;20206;-75
2021/03/01 03:42:11;;;;;;;13.48;9.25;;;;;;;;;;5032025;28;20716;-76
2021/03/01 03:44:38;;;;;;;11.85;8.35;;;;;;;;;;5032137;28;20225;-75
2021/03/01 03:47:06;;;;;;;15.07;8.85;;;;;;;;;;5031683;28;20207;-75
2021/03/01 03:49:34;;;;;;;20.23;9.93;;;;;;;;;;5018153;28;20195;-74
2021/03/01 03:52:01;;;;;;;15.18;8.60;;;;;;;;;;4996229;28;20205;-76
2021/03/01 03:54:31;;;;;;;14.40;9.40;;;;;;;;;;5009899;28;20220;-75
2021/03/01 03:56:58;;;;;;;14.30;9.00;;;;;;;;;;5010156;28;20199;-76
2021/03/01 03:59:26;;;;;;;20.42;10.00;;;;;;;;;;5010318;28;20200;-75
2021/03/01 04:01:55;;;;;;;17.88;10.10;;;;;;;;;;5029033;28;20195;-74
2021/03/01 04:04:23;;;;;;;15.07;9.68;;;;;;;;;;5035639;28;20219;-76
2021/03/01 04:06:52;;;;;;;12.85;8.73;;;;;;;;;;5018228;28;20204;-73
2021/03/01 04:09:20;;;;;;;15.50;9.48;;;;;;;;;;5034488;28;20234;-75
2021/03/01 04:11:48;;;;;;;12.88;8.75;;;;;;;;;;5021521;28;20199;-76
2021/03/01 04:14:16;;;;;;;18.60;10.40;;;;;;;;;;5017160;28;20216;-75
2021/03/01 04:16:46;;;;;;;14.48;8.57;;;;;;;;;;5013674;28;20204;-75
2021/03/01 04:19:14;;;;;;;15.70;8.73;;;;;;;;;;5013493;28;20463;-75
2021/03/01 04:21:41;;;;;;;15.60;10.52;;;;;;;;;;5013529;28;20209;-75
2021/03/01 04:24:10;;;;;;;14.25;8.30;;;;;;;;;;5032645;28;20254;-78
2021/03/01 04:26:37;;;;;;;15.18;8.60;;;;;;;;;;5035561;28;20203;-75
2021/03/01 04:29:04;;;;;;;15.10;9.05;;;;;;;;;;5035405;28;20219;-77
2021/03/01 04:31:32;;;;;;;12.73;9.43;;;;;;;;;;5034665;28;20203;-74
2021/03/01 04:33:59;;;;;;;13.73;9.35;;;;;;;;;;5020740;28;20266;-73
2021/03/01 04:36:27;;;;;;;18.15;10.00;;;;;;;;;;5027022;28;20199;-73
2021/03/01 04:38:54;;;;;;;13.95;9.45;;;;;;;;;;5033251;28;20271;-73
2021/03/01 04:41:22;;;;;;;13.73;9.18;;;;;;;;;;5033036;28;20199;-76
2021/03/01 04:43:50;;;;;;;15.50;9.23;;;;;;;;;;5033098;28;20632;-76
2021/03/01 04:46:17;;;;;;;16.52;10.18;;;;;;;;;;5034538;28;20209;-74
2021/03/01 04:48:45;;;;;;;13.77;8.77;;;;;;;;;;5034833;28;20219;-74
2021/03/01 04:51:12;;;;;;;17.48;9.70;;;;;;;;;;5035129;28;20206;-75
2021/03/01 04:53:39;;;;;;;16.52;9.63;;;;;;;;;;5034565;28;20227;-75
2021/03/01 04:56:07;;;;;;;15.00;8.93;;;;;;;;;;5020653;28;20200;-75
2021/03/01 04:58:35;;;;;;;14.23;8.43;;;;;;;;;;5016660;28;20262;-76
2021/03/01 05:01:02;;;;;;;16.55;9.02;;;;;;;;;;5012826;28;20204;-72
2021/03/01 05:03:30;;;;;;;14.00;8.93;;;;;;;;;;5012593;28;20219;-75
2021/03/01 05:05:58;;;;;;;16.42;9.07;;;;;;;;;;5013119;28;20253;-75
2021/03/01 05:08:26;;;;;;;13.38;8.07;;;;;;;;;;5030406;28;20231;-74
2021/03/01 05:10:53;;;;;;;12.55;8.60;;;;;;;;;;5034911;28;20203;-75
2021/03/01 05:13:20;;;;;;;14.65;9.82;;;;;;;;;;5034195;28;20223;-76
2021/03/01 05:15:48;;;;;;;16.25;9.15;;;;;;;;;;5034805;28;20637;-75
2021/03/01 05:18:15;;;;;;;18.25;8.88;;;;;;;;;;5020588;28;20192;-77
2021/03/01 05:20:42;;;;;;;16.92;9.57;;;;;;;;;;5016232;28;20210;-76
2021/03/01 05:23:08;;;;;;;13.60;9.38;;;;;;;;;;5012519;28;20227;-73
2021/03/01 05:25:35;;;;;;;15.25;10.18;;;;;;;;;;5012323;28;20200;-75
2021/03/01 05:28:02;;;;;;;12.60;8.57;;;;;;;;;;5012357;28;20218;-75
2021/03/01 05:30:29;;;;;;;15.00;9.77;;;;;;;;;;5029388;28;20211;-74
2021/03/01 05:32:57;;;;;;;16.30;9.40;;;;;;;;;;5034162;28;20298;-74
2021/03/01 05:35:24;;;;;;;14.88;9.02;;;;;;;;;;5034225;28;20297;-75
2021/03/01 05:37:51;;;;;;;15.45;9.77;;;;;;;;;;5034102;28;20222;-75
2021/03/01 05:40:18;;;;;;;15.82;9.23;;;;;;;;;;5004262;28;20249;-76
2021/03/01 05:42:45;;;;;;;15.40;10.52;;;;;;;;;;5024593;28;20245;-75
2021/03/01 05:45:13;;;;;;;16.10;9.55;;;;;;;;;;5031770;28;20652;-74
2021/03/01 05:47:40;;;;;;;15.65;9.73;;;;;;;;;;5031703;28;20215;-77
2021/03/01 05:50:09;;;;;;;15.65;9.63;;;;;;;;;;5028861;28;20220;-78
2021/03/01 05:52:37;;;;;;;18.55;9.82;;;;;;;;;;5027723;28;20196;-76
2021/03/01 05:55:04;;;;;;;15.27;9.93;;;;;;;;;;5033662;28;20227;-75
2021/03/01 05:57:32;;;;;;;17.55;10.60;;;;;;;;;;5033789;28;20199;-76
2021/03/01 05:59:59;;;;;;;17.48;9.32;;;;;;;;;;5033981;28;20294;-77
2021/03/01 06:02:26;;;;;;;16.33;9.70;;;;;;;;;;5020180;28;20587;-75
2021/03/01 06:04:54;;;;;;;16.02;9.38;;;;;;;;;;5020160;28;20211;-76
2021/03/01 06:07:21;;;;;;;14.70;9.45;;;;;;;;;;5022361;28;20254;-77
2021/03/01 06:09:48;;;;;;;14.30;9.00;;;;;;;;;;5010959;28;20228;-76
2021/03/01 06:12:15;;;;;;;15.85;10.13;;;;;;;;;;5030016;28;20218;-74
2021/03/01 06:14:42;;;;;;;15.25;9.30;;;;;;;;;;5032522;28;20215;-75
2021/03/01 06:17:10;;;;;;;15.88;9.43;;;;;;;;;;5019788;28;20271;-78
2021/03/01 06:19:51;;;;;;;15.73;9.65;;;;;;;;;;5015775;28;20200;-77
2021/03/01 06:22:19;;;;;;;14.20;10.52;;;;;;;;;;5015824;28;20354;-74
2021/03/01 06:25:00;;;;;;;13.73;9.35;;;;;;;;;;5030209;28;20218;-75
2021/03/01 06:27:28;;;;;;;14.77;9.32;;;;;;;;;;5016073;28;20195;-75
2021/03/01 06:30:05;;;;;;;15.68;9.73;;;;;;;;;;5032713;28;20649;-78
2021/03/01 06:32:32;;;;;;;17.80;11.02;;;;;;;;;;5032611;28;20199;-75
2021/03/01 06:34:59;;;;;;;17.75;10.10;;;;;;;;;;5032980;28;20223;-76
2021/03/01 06:37:25;;;;;;;14.65;9.35;;;;;;;;;;5033260;28;20195;-75
2021/03/01 06:39:55;;;;;;;14.00;9.98;;;;;;;;;;5019457;28;20196;-76
2021/03/01 06:42:23;;;;;;;19.40;10.15;;;;;;;;;;4997595;28;20882;-76
2021/03/01 06:45:11;;;;;;;17.88;10.55;;;;;;;;;;4998579;28;20688;-77
2021/03/01 06:47:48;;;;;;;18.00;10.07;;;;;;;;;;5030240;28;20242;-75
2021/03/01 06:50:32;;;;;;;18.30;10.50;;;;;;;;;;5013951;28;20248;-76
2021/03/01 06:53:01;;;;;;;17.90;9.73;;;;;;;;;;4998090;28;20653;-78
2021/03/01 06:55:28;;;;;;;15.90;10.75;;;;;;;;;;5020839;28;20282;-75
2021/03/01 06:57:55;;;;;;;17.95;11.35;;;;;;;;;;5015117;28;20195;-75
2021/03/01 07:00:24;;;;;;;18.92;10.00;;;;;;;;;;5031340;28;20629;-77
2021/03/01 07:02:52;;;;;;;15.65;10.65;;;;;;;;;;5018427;28;20634;-77
2021/03/01 07:05:19;;;;;;;15.60;10.50;;;;;;;;;;5013804;28;20666;-78
2021/03/01 07:07:46;;;;;;;17.50;10.98;;;;;;;;;;5010604;28;20319;-78
2021/03/01 07:10:13;;;;;;;17.25;10.68;;;;;;;;;;5010055;28;20312;-74
2021/03/01 07:12:41;;;;;;;19.42;11.05;;;;;;;;;;5010983;28;20291;-75
2021/03/01 07:15:09;;;;;;;16.77;10.43;;;;;;;;;;5029618;28;20203;-76
2021/03/01 07:17:37;;;;;;;19.73;11.82;;;;;;;;;;5032372;28;20289;-74
2021/03/01 07:20:06;;;;;;;15.25;10.10;;;;;;;;;;5015076;28;20199;-76
2021/03/01 07:22:33;;;;;;;15.15;9.88;;;;;;;;;;5032266;28;20199;-74
2021/03/01 07:25:01;;;;;;;15.88;10.98;;;;;;;;;;5020295;28;20557;-76
2021/03/01 07:27:28;;;;;;;17.95;10.32;;;;;;;;;;5015579;28;20197;-74
2021/03/01 07:29:58;;;;;;;15.70;10.75;;;;;;;;;;5010118;28;20237;-75
2021/03/01 07:32:27;;;;;;;16.63;9.90;;;;;;;;;;5000348;28;20188;-75
2021/03/01 07:34:54;;;;;;;14.23;9.95;;;;;;;;;;5008852;28;20226;-75
2021/03/01 07:37:23;;;;;;;12.32;9.10;;;;;;;;;;5020532;28;20200;-74
2021/03/01 07:39:49;;;;;;;15.00;8.60;;;;;;;;;;5022247;28;20204;-73
2021/03/01 07:42:17;;;;;;;16.30;8.95;;;;;;;;;;5016212;28;20201;-75
2021/03/01 07:44:47;;;;;;;13.80;8.75;;;;;;;;;;5034229;28;20226;-75
2021/03/01 07:47:13;;;;;;;15.15;8.93;;;;;;;;;;5034051;28;20233;-76
2021/03/01 07:49:42;;;;;;;11.80;8.70;;;;;;;;;;5034598;28;20215;-74
2021/03/01 07:52:09;;;;;;;14.00;9.18;;;;;;;;;;5035844;28;20210;-76
2021/03/01 07:54:50;;;;;;;13.88;8.38;;;;;;;;;;5018809;28;20306;-74
2021/03/01 07:57:18;;;;;;;13.68;8.63;;;;;;;;;;5020656;28;20563;-76
2021/03/01 07:59:45;;;;;;;15.65;8.68;;;;;;;;;;5029047;28;20252;-75
2021/03/01 08:02:14;;;;;;;13.63;8.30;;;;;;;;;;5021494;28;21237;-76
2021/03/01 08:04:41;;;;;;;15.63;8.85;;;;;;;;;;5015473;28;20219;-73
2021/03/01 08:07:08;;;;;;;14.45;9.00;;;;;;;;;;5033651;28;20677;-77
2021/03/01 08:09:44;;;;;;;13.55;8.90;;;;;;;;;;5032824;28;20595;-76
2021/03/01 08:12:11;;;;;;;15.00;8.25;;;;;;;;;;5029809;28;20203;-77
2021/03/01 08:14:53;;;;;;;12.48;8.90;;;;;;;;;;5005792;28;20370;-77
2021/03/01 08:17:35;;;;;;;13.30;8.68;;;;;;;;;;5031297;28;20203;-77
2021/03/01 08:20:22;;;;;;;12.38;7.50;;;;;;;;;;5018016;28;20206;-75
2021/03/01 08:23:04;;;;;;;11.65;7.80;;;;;;;;;;5018817;28;20213;-76
2021/03/01 08:25:46;;;;;;;23.02;8.93;;;;;;;;;;5023439;28;20286;-75
2021/03/01 08:28:39;;;;;;;12.35;7.97;;;;;;;;;;5020291;28;20316;-74
2021/03/01 08:31:21;;;;;;;14.98;9.30;;;;;;;;;;5020898;28;20207;-76
2021/03/01 08:33:48;;;;;;;22.50;9.02;;;;;;;;;;5019730;28;20256;-74
2021/03/01 08:36:25;;;;;;;14.48;9.00;;;;;;;;;;5023647;28;20199;-75
2021/03/01 08:38:54;;;;;;;13.10;8.30;;;;;;;;;;5017616;28;20212;-74
2021/03/01 08:41:37;;;;;;;13.10;7.55;;;;;;;;;;5013184;28;20210;-75
2021/03/01 08:44:12;;;;;;;13.25;9.18;;;;;;;;;;5007533;28;20681;-76
2021/03/01 08:46:39;;;;;;;13.48;7.55;;;;;;;;;;5033621;28;20204;-76
2021/03/01 08:49:06;;;;;;;13.40;8.65;;;;;;;;;;5034194;28;20217;-77
2021/03/01 08:51:36;;;;;;;11.77;7.70;;;;;;;;;;5035200;28;20232;-77
2021/03/01 08:54:03;;;;;;;11.35;8.60;;;;;;;;;;5034890;28;20586;-75
2021/03/01 08:56:30;;;;;;;12.68;8.05;;;;;;;;;;5034804;28;20201;-76
2021/03/01 08:58:57;;;;;;;15.55;8.75;;;;;;;;;;5023416;28;20198;-77
2021/03/01 09:01:24;;;;;;;15.02;8.57;;;;;;;;;;5023577;28;20198;-75
2021/03/01 09:03:51;;;;;;;11.02;7.70;;;;;;;;;;5014968;28;20692;-78
2021/03/01 09:06:19;;;;;;;13.85;8.50;;;;;;;;;;5032649;28;20205;-77
2021/03/01 09:08:47;;;;;;;10.98;7.82;;;;;;;;;;5032688;28;20317;-75
2021/03/01 09:11:15;;;;;;;12.60;7.18;;;;;;;;;;5025653;28;20240;-79
2021/03/01 09:13:42;;;;;;;10.25;6.22;;;;;;;;;;5033709;28;20263;-76
2021/03/01 09:16:10;;;;;;;12.80;8.07;;;;;;;;;;5019618;28;20201;-77
2021/03/01 09:18:38;;;;;;;11.50;7.80;;;;;;;;;;5012252;28;20438;-76
2021/03/01 09:21:05;;;;;;;12.38;7.35;;;;;;;;;;5017670;28;20273;-75
2021/03/01 09:23:34;;;;;;;10.48;7.30;;;;;;;;;;5020081;28;20584;-78
2021/03/01 09:26:01;;;;;;;13.40;7.87;;;;;;;;;;5012241;28;20214;-79
2021/03/01 09:28:29;;;;;;;10.90;6.70;;;;;;;;;;5012420;28;20479;-78
2021/03/01 09:31:04;;;;;;;11.90;7.57;;;;;;;;;;4995292;28;20451;-76
2021/03/01 09:33:31;;;;;;;14.20;8.07;;;;;;;;;;5021748;28;20486;-76
2021/03/01 09:35:59;;;;;;;14.47;7.70;;;;;;;;;;5034485;28;20446;-77
2021/03/01 09:38:26;;;;;;;20.67;8.38;;;;;;;;;;5034237;28;20483;-74
2021/03/01 09:40:57;;;;;;;15.13;8.90;;;;;;;;;;5034151;28;20283;-76
2021/03/01 09:43:24;;;;;;;14.18;8.43;;;;;;;;;;5029932;28;20321;-77
2021/03/01 09:45:51;;;;;;;11.10;8.00;;;;;;;;;;5019959;28;20212;-76
2021/03/01 09:48:19;;;;;;;12.25;7.65;;;;;;;;;;5016538;28;20560;-79
2021/03/01 09:50:47;;;;;;;12.30;8.10;;;;;;;;;;5015658;28;20718;-76
2021/03/01 09:53:16;;;;;;;13.17;9.17;;;;;;;;;;5032301;28;20457;-76
2021/03/01 09:55:43;;;;;;;13.50;8.80;;;;;;;;;;5032401;28;20457;-76
2021/03/01 09:58:25;;;;;;;14.10;8.80;;;;;;;;;;5016259;28;20532;-77
2021/03/01 10:00:52;;;;;;;12.47;8.40;;;;;;;;;;4998059;28;20429;-76
2021/03/01 10:03:19;;;;;;;15.15;8.85;;;;;;;;;;5013942;28;20511;-75
2021/03/01 10:05:48;;;;;;;12.70;9.10;;;;;;;;;;4997541;28;20201;-76
2021/03/01 10:08:20;;;;;;;14.20;9.30;;;;;;;;;;5019281;28;20523;-75
2021/03/01 10:10:48;;;;;;;16.37;9.17;;;;;;;;;;5002026;28;20539;-74
2021/03/01 10:13:24;;;;;;;14.00;9.03;;;;;;;;;;5031314;28;20469;-75
2021/03/01 10:15:51;;;;;;;14.10;8.60;;;;;;;;;;5030893;28;20445;-76
2021/03/01 10:18:19;;;;;;;17.27;8.60;;;;;;;;;;5031664;28;20448;-77
2021/03/01 10:20:47;;;;;;;12.37;8.40;;;;;;;;;;5033462;28;20532;-75
2021/03/01 10:23:25;;;;;;;12.37;8.50;;;;;;;;;;5015861;28;20616;-77
2021/03/01 10:26:02;;;;;;;12.93;8.60;;;;;;;;;;5033061;28;20528;-75
2021/03/01 10:28:30;;;;;;;12.00;9.10;;;;;;;;;;5032177;28;20542;-76
2021/03/01 10:30:59;;;;;;;12.40;8.70;;;;;;;;;;5018652;28;20921;-76
2021/03/01 10:33:26;;;;;;;13.30;9.40;;;;;;;;;;5025766;28;20473;-75
2021/03/01 10:36:06;;;;;;;12.73;9.07;;;;;;;;;;5031394;28;20596;-74
2021/03/01 10:38:48;;;;;;;17.20;9.10;;;;;;;;;;5031014;28;20481;-75
2021/03/01 10:41:17;;;;;;;12.70;9.03;;;;;;;;;;5013848;28;20454;-76
2021/03/01 10:43:59;;;;;;;13.20;9.20;;;;;;;;;;5022785;28;20769;-75
2021/03/01 10:46:30;;;;;;;12.00;8.37;;;;;;;;;;5007323;28;20846;-74
2021/03/01 10:48:57;;;;;;;9.53;7.50;;;;;;;;;;5012649;28;20478;-76
2021/03/01 10:51:23;;;;;;;14.70;8.13;;;;;;;;;;5030324;28;20442;-75
2021/03/01 10:53:50;;;;;;;11.97;8.90;;;;;;;;;;5031163;28;20551;-76
2021/03/01 10:56:18;;;;;;;14.97;9.00;;;;;;;;;;5031229;28;20465;-75
2021/03/01 10:58:45;;;;;;;14.70;8.50;;;;;;;;;;5032131;28;20528;-76
2021/03/01 11:01:12;;;;;;;11.93;8.43;;;;;;;;;;5032592;28;20934;-77
2021/03/01 11:03:39;;;;;;;13.00;8.30;;;;;;;;;;5032218;28;20466;-77
2021/03/01 11:06:06;;;;;;;11.27;7.77;;;;;;;;;;5025376;28;20443;-75
2021/03/01 11:08:33;;;;;;;11.20;8.00;;;;;;;;;;5018194;28;20577;-76
2021/03/01 11:11:00;;;;;;;13.47;8.50;;;;;;;;;;5016859;28;20537;-75
2021/03/01 11:13:28;;;;;;;14.13;8.90;;;;;;;;;;5029230;28;20496;-78
2021/03/01 11:15:54;;;;;;;12.17;7.90;;;;;;;;;;5028754;28;20457;-74
2021/03/01 11:18:22;;;;;;;11.50;7.70;;;;;;;;;;5030679;28;20544;-75
2021/03/01 11:20:48;;;;;;;15.63;9.10;;;;;;;;;;5032413;28;20887;-76
2021/03/01 11:23:15;;;;;;;12.20;8.53;;;;;;;;;;5031398;28;20552;-76
2021/03/01 11:25:42;;;;;;;12.33;7.90;;;;;;;;;;5032254;28;20449;-76
2021/03/01 11:28:11;;;;;;;11.57;7.73;;;;;;;;;;5025925;28;20474;-75
2021/03/01 11:30:39;;;;;;;11.30;7.07;;;;;;;;;;5018196;28;20461;-74
2021/03/01 11:33:07;;;;;;;10.80;7.63;;;;;;;;;;5019337;28;20975;-75
2021/03/01 11:35:34;;;;;;;12.33;6.93;;;;;;;;;;5010409;28;20808;-75
2021/03/01 11:38:01;;;;;;;9.70;7.83;;;;;;;;;;5022331;28;20525;-74
2021/03/01 11:40:27;;;;;;;10.80;7.93;;;;;;;;;;5030403;28;20792;-74
2021/03/01 11:42:54;;;;;;;12.57;7.80;;;;;;;;;;5021478;28;20447;-75
2021/03/01 11:45:21;;;;;;;9.40;6.50;;;;;;;;;;5014681;28;20453;-75
2021/03/01 11:47:49;;;;;;;9.13;6.60;;;;;;;;;;5031967;28;20434;-75
2021/03/01 11:50:18;;;;;;;15.50;7.43;;;;;;;;;;5031733;28;20931;-76
2021/03/01 11:52:45;;;;;;;10.33;7.40;;;;;;;;;;5001971;28;20438;-76
2021/03/01 11:55:12;;;;;;;11.40;7.80;;;;;;;;;;4996859;28;20936;-75
2021/03/01 11:57:39;;;;;;;9.70;7.13;;;;;;;;;;4992762;28;20517;-75
2021/03/01 12:00:07;;;;;;;12.73;6.93;;;;;;;;;;5009872;28;20447;-75
2021/03/01 12:02:33;;;;;;;10.80;7.07;;;;;;;;;;5026806;28;20448;-75
2021/03/01 12:05:01;;;;;;;9.30;6.50;;;;;;;;;;5027025;28;20577;-74
2021/03/01 12:07:28;;;;;;;8.03;5.70;;;;;;;;;;5031904;28;20544;-74
2021/03/01 12:09:55;;;;;;;10.27;5.90;;;;;;;;;;5030797;28;20570;-75
2021/03/01 12:12:22;;;;;;;8.50;6.43;;;;;;;;;;5031810;28;20536;-74
2021/03/01 12:14:48;;;;;;;10.40;5.93;;;;;;;;;;5023153;28;21039;-77
2021/03/01 12:17:15;;;;;;;8.37;6.63;;;;;;;;;;5018509;28;20948;-75
2021/03/01 12:19:42;;;;;;;9.97;6.27;;;;;;;;;;5028950;28;20986;-75
2021/03/01 12:22:10;;;;;;;5.33;4.77;;;;;;;;;;5029551;28;20442;-74
2021/03/01 12:24:37;;;;;;;8.67;5.90;;;;;;;;;;5032858;28;20462;-75
2021/03/01 12:27:04;;;;;;;8.50;6.10;;;;;;;;;;5033859;28;20998;-76
2021/03/01 12:29:31;;;;;;;10.47;6.07;;;;;;;;;;5035216;28;21012;-75
2021/03/01 12:31:57;;;;;;;11.23;6.57;;;;;;;;;;5035539;28;20452;-76
2021/03/01 12:34:24;;;;;;;8.90;5.43;;;;;;;;;;5035289;28;20462;-75
2021/03/01 12:36:51;;;;;;;8.30;5.93;;;;;;;;;;5031259;28;20452;-76
2021/03/01 12:39:19;;;;;;;6.00;5.37;;;;;;;;;;5021041;28;20441;-75
2021/03/01 12:41:46;;;;;;;8.60;5.70;;;;;;;;;;5014468;28;20493;-74
2021/03/01 12:44:12;;;;;;;8.93;5.33;;;;;;;;;;5011226;28;20462;-75
2021/03/01 12:46:39;;;;;;;12.00;5.60;;;;;;;;;;5017157;28;20487;-75
2021/03/01 12:49:06;;;;;;;8.37;5.70;;;;;;;;;;5029863;28;20589;-75
2021/03/01 12:51:33;;;;;;;9.23;5.67;;;;;;;;;;5019653;28;21061;-76
2021/03/01 12:54:00;;;;;;;8.50;6.30;;;;;;;;;;5021367;28;21103;-76
2021/03/01 12:56:27;;;;;;;13.97;5.77;;;;;;;;;;5029723;28;20450;-76
2021/03/01 12:58:54;;;;;;;10.83;5.83;;;;;;;;;;5029911;28;20456;-75
2021/03/01 13:01:21;;;;;;;8.47;4.80;;;;;;;;;;5019054;28;20451;-76
2021/03/01 13:03:48;;;;;;;8.00;5.27;;;;;;;;;;5025115;28;20489;-75
2021/03/01 13:06:15;;;;;;;8.57;5.30;;;;;;;;;;5013629;28;20462;-76
2021/03/01 13:08:42;;;;;;;9.03;6.23;;;;;;;;;;5016490;28;20490;-76
2021/03/01 13:11:09;;;;;;;8.93;4.90;;;;;;;;;;5023006;28;20460;-76
2021/03/01 13:13:36;;;;;;;6.80;4.80;;;;;;;;;;5029809;28;21018;-76
2021/03/01 13:16:03;;;;;;;9.27;5.60;;;;;;;;;;5029623;28;20460;-76
2021/03/01 13:18:30;;;;;;;10.67;5.97;;;;;;;;;;5030064;28;20454;-75
2021/03/01 13:20:57;;;;;;;7.00;4.93;;;;;;;;;;5030422;28;20571;-75
2021/03/01 13:23:26;;;;;;;7.67;5.10;;;;;;;;;;5022768;28;20827;-75
2021/03/01 13:25:53;;;;;;;8.23;5.20;;;;;;;;;;5013699;28;20948;-75
2021/03/01 13:28:19;;;;;;;8.80;5.87;;;;;;;;;;5030944;28;20486;-75
2021/03/01 13:30:47;;;;;;;8.13;6.00;;;;;;;;;;5021498;28;20493;-75
2021/03/01 13:33:14;;;;;;;7.50;5.10;;;;;;;;;;5015712;28;20471;-75
2021/03/01 13:35:41;;;;;;;8.67;5.93;;;;;;;;;;5009902;28;20978;-76
2021/03/01 13:38:08;;;;;;;13.10;6.47;;;;;;;;;;5028930;28;20446;-76
2021/03/01 13:40:35;;;;;;;7.20;4.80;;;;;;;;;;5028906;28;20443;-76
2021/03/01 13:43:02;;;;;;;7.20;5.87;;;;;;;;;;5032269;28;20472;-76
2021/03/01 13:45:28;;;;;;;9.07;5.57;;;;;;;;;;5031490;28;20450;-75
2021/03/01 13:47:56;;;;;;;11.77;5.60;;;;;;;;;;5033772;28;20442;-76
2021/03/01 13:50:23;;;;;;;8.30;5.30;;;;;;;;;;5033972;28;20450;-75
2021/03/01 13:52:50;;;;;;;7.23;4.97;;;;;;;;;;5011188;28;20446;-76
2021/03/01 13:55:17;;;;;;;10.60;6.80;;;;;;;;;;5019983;28;20465;-76
2021/03/01 13:57:44;;;;;;;7.10;4.87;;;;;;;;;;4995528;28;20566;-76
2021/03/01 14:00:11;;;;;;;11.03;5.17;;;;;;;;;;5016211;28;20434;-76
2021/03/01 14:02:38;;;;;;;6.97;4.90;;;;;;;;;;5031867;28;20450;-74
2021/03/01 14:05:07;;;;;;;6.07;4.17;;;;;;;;;;5031973;28;21031;-76
2021/03/01 14:07:34;;;;;;;9.20;4.80;;;;;;;;;;5034060;28;20813;-75
2021/03/01 14:10:01;;;;;;;7.70;4.50;;;;;;;;;;5016174;28;20485;-72
2021/03/01 14:12:28;;;;;;;10.00;4.70;;;;;;;;;;5033025;28;20815;-75
2021/03/01 14:14:55;;;;;;;7.20;4.93;;;;;;;;;;5032242;28;20607;-75
2021/03/01 14:17:22;;;;;;;7.20;5.00;;;;;;;;;;5019567;28;20439;-75
2021/03/01 14:19:49;;;;;;;7.70;4.90;;;;;;;;;;5025951;28;20765;-75
2021/03/01 14:22:17;;;;;;;8.23;4.87;;;;;;;;;;5031252;28;20446;-75
2021/03/01 14:24:44;;;;;;;6.83;5.63;;;;;;;;;;5031360;28;20466;-75
2021/03/01 14:27:10;;;;;;;7.10;5.40;;;;;;;;;;5031757;28;20662;-75
2021/03/01 14:29:37;;;;;;;7.00;4.37;;;;;;;;;;5032651;28;20478;-75
2021/03/01 14:32:04;;;;;;;10.10;4.97;;;;;;;;;;5033047;28;20532;-75
2021/03/01 14:34:31;;;;;;;7.20;4.10;;;;;;;;;;5033092;28;20476;-75
2021/03/01 14:36:58;;;;;;;5.40;4.73;;;;;;;;;;5033317;28;20446;-75